Portada
METAR-TAF:

Aeropuertos :

Viru-Viru, Bolivia

Aeropuerto Internacional Viru Viru

latitud: 17-38S, longitud: 063-08W, altitud: 373 m

Observación

El informe se hizo hace 44 minutos, a las 17:00 UTC
Viento 15 kt del sur
Temperatura 20°C
Humedad 37%
Presión 1019 hPa
Visibilidad 10 km o más
Cielo nuboso a una altura de 8000 ft

METAR: SLVR 291700Z 18015KT 9999 BKN080 20/05 Q1019

Hora: 13:44 (17:44 UTC)

Pronóstico

El informe se hizo hace 54 minutos, a las 16:50 UTC
Pronóstico válido del 29 a las 18 UTC al 30 a las 18 UTC
Viento 15 kt del sur
Visibilidad 10 km o más
Evolucionando progresivamente
del 29 a las 23 UTC al 30 a las 01 UTC
Viento 5 kt del sur
Evolucionando progresivamente
del 30 a las 15 UTC al 30 a las 18 UTC
Viento 15 kt del sur
Nubes dispersas a una altura de 8000 ft

TAF: SLVR 291650Z 2918/3018 18015KT 9999 NSC TX24/2919Z TN14/3010Z BECMG 2923/3001 18005KT BECMG 3015/3018 18015KT SCT080

METAR-TAF

Observaciones y pronósticos meteorológicos de más de 4000 aeropuertos (mensajes METAR y TAF).

Los puntos amarillos y rojos representan las estaciones disponibles.

Ponga el ratón en el punto deseado para ver el nombre de la estación.

Haga clic para ver las observaciones y los pronósticos meteorológicos.

Para cambiar el mapa : haga clic en los botones verdes con una cruz de color negro para hacer un zoom, en el botón verde con un guión para alejar o en las flechas verdes para mapas adyacentes.


METAR-TAF: